createdAt,value
2023-01-13T00:00:02.800Z,72
2023-01-13T00:01:02.799Z,72
2023-01-13T00:02:02.843Z,72
2023-01-13T00:03:02.796Z,71
2023-01-13T00:04:02.816Z,71
2023-01-13T00:05:02.844Z,71
2023-01-13T00:06:02.811Z,71
2023-01-13T00:07:02.792Z,71
2023-01-13T00:08:02.802Z,71
2023-01-13T00:09:02.807Z,71
2023-01-13T00:10:02.807Z,71
2023-01-13T00:11:02.806Z,71
2023-01-13T00:12:02.814Z,71
2023-01-13T00:13:02.804Z,72
2023-01-13T00:14:02.793Z,72
2023-01-13T00:15:02.818Z,72
2023-01-13T00:16:02.816Z,71
2023-01-13T00:17:02.793Z,71
2023-01-13T00:18:02.827Z,71
2023-01-13T00:19:02.794Z,71
2023-01-13T00:20:02.888Z,72
2023-01-13T00:21:02.837Z,72
2023-01-13T00:22:02.793Z,72
2023-01-13T00:23:02.822Z,72
2023-01-13T00:24:02.794Z,72
2023-01-13T00:25:02.814Z,72
2023-01-13T00:26:02.812Z,72
2023-01-13T00:27:02.807Z,72
2023-01-13T00:28:02.829Z,72
2023-01-13T00:29:02.818Z,72
2023-01-13T00:30:02.798Z,72
2023-01-13T00:31:02.861Z,72
2023-01-13T00:32:02.802Z,72
2023-01-13T00:33:02.807Z,72
2023-01-13T00:34:02.793Z,72
2023-01-13T00:35:02.809Z,72
2023-01-13T00:36:02.840Z,72
2023-01-13T00:37:02.806Z,72
2023-01-13T00:38:02.800Z,72
2023-01-13T00:39:02.817Z,72
2023-01-13T00:40:02.802Z,72
2023-01-13T00:41:02.822Z,72
2023-01-13T00:42:02.797Z,72
2023-01-13T00:43:02.813Z,72
2023-01-13T00:44:02.802Z,72
2023-01-13T00:45:02.807Z,72
2023-01-13T00:46:02.815Z,72
2023-01-13T00:47:02.915Z,72
2023-01-13T00:48:02.811Z,72
2023-01-13T00:49:02.800Z,72
2023-01-13T00:50:02.829Z,72
2023-01-13T00:51:02.805Z,72
2023-01-13T00:52:02.834Z,72
2023-01-13T00:53:02.837Z,72
2023-01-13T00:54:02.804Z,72
2023-01-13T00:55:02.820Z,72
2023-01-13T00:56:02.805Z,73
2023-01-13T00:57:02.815Z,73
2023-01-13T00:58:02.970Z,73
2023-01-13T00:59:02.804Z,73
2023-01-13T01:00:02.811Z,73
2023-01-13T01:01:02.947Z,73
2023-01-13T01:02:02.952Z,73
2023-01-13T01:03:02.809Z,73
2023-01-13T01:04:02.818Z,73
2023-01-13T01:05:02.805Z,73
2023-01-13T01:06:02.806Z,73
2023-01-13T01:07:02.823Z,73
2023-01-13T01:08:02.844Z,73
2023-01-13T01:09:02.818Z,73
2023-01-13T01:10:02.803Z,73
2023-01-13T01:11:02.821Z,73
2023-01-13T01:12:02.822Z,73
2023-01-13T01:13:02.869Z,73
2023-01-13T01:14:02.841Z,73
2023-01-13T01:15:02.815Z,73
2023-01-13T01:16:02.904Z,73
2023-01-13T01:17:02.883Z,73
2023-01-13T01:18:02.825Z,73
2023-01-13T01:19:02.816Z,74
2023-01-13T01:20:02.837Z,74
2023-01-13T01:21:02.822Z,74
2023-01-13T01:22:02.827Z,74
2023-01-13T01:23:02.822Z,74
2023-01-13T01:24:02.855Z,74
2023-01-13T01:25:02.862Z,74
2023-01-13T01:26:02.826Z,73
2023-01-13T01:27:02.826Z,73
2023-01-13T01:28:02.813Z,73
2023-01-13T01:29:02.839Z,74
2023-01-13T01:30:02.819Z,74
2023-01-13T01:31:02.879Z,74
2023-01-13T01:32:02.834Z,74
2023-01-13T01:33:02.820Z,74
2023-01-13T01:34:02.858Z,74
2023-01-13T01:35:02.852Z,74
2023-01-13T01:36:02.849Z,73
2023-01-13T01:37:02.862Z,73
2023-01-13T01:38:02.909Z,73
2023-01-13T01:39:02.844Z,73
2023-01-13T01:40:02.882Z,73
2023-01-13T01:41:02.891Z,73
2023-01-13T01:42:02.845Z,73
2023-01-13T01:43:02.881Z,74
2023-01-13T01:44:02.980Z,74
2023-01-13T01:45:02.844Z,74
2023-01-13T01:46:02.836Z,75
2023-01-13T01:47:02.890Z,75
2023-01-13T01:48:02.844Z,75
2023-01-13T01:49:02.842Z,77
2023-01-13T01:50:02.831Z,77
2023-01-13T01:51:02.823Z,77
2023-01-13T01:52:02.840Z,77
2023-01-13T01:53:02.894Z,78
2023-01-13T01:54:02.824Z,78
2023-01-13T01:55:02.847Z,78
2023-01-13T01:56:02.848Z,78
2023-01-13T01:57:02.828Z,78
2023-01-13T01:58:02.835Z,78
2023-01-13T01:59:02.855Z,77
2023-01-13T02:00:02.837Z,77
2023-01-13T02:01:02.987Z,77
2023-01-13T02:02:02.944Z,77
2023-01-13T02:03:02.822Z,77
2023-01-13T02:04:02.821Z,77
2023-01-13T02:05:02.830Z,77
2023-01-13T02:06:02.839Z,77
2023-01-13T02:07:02.824Z,77
2023-01-13T02:08:02.849Z,77
2023-01-13T02:09:02.844Z,77
2023-01-13T02:10:02.835Z,76
2023-01-13T02:11:02.847Z,76
2023-01-13T02:12:02.863Z,76
2023-01-13T02:13:02.847Z,76
2023-01-13T02:14:02.827Z,76
2023-01-13T02:15:02.819Z,76
2023-01-13T02:16:02.909Z,76
2023-01-13T02:17:02.821Z,76
2023-01-13T02:18:02.855Z,76
2023-01-13T02:19:02.844Z,76
2023-01-13T02:20:02.830Z,76
2023-01-13T02:21:02.836Z,76
2023-01-13T02:22:02.842Z,76
2023-01-13T02:23:02.881Z,77
2023-01-13T02:24:02.836Z,77
2023-01-13T02:25:02.851Z,77
2023-01-13T02:26:02.824Z,78
2023-01-13T02:27:02.883Z,78
2023-01-13T02:28:02.899Z,78
2023-01-13T02:29:02.830Z,78
2023-01-13T02:30:02.878Z,79
2023-01-13T02:31:02.845Z,79
2023-01-13T02:32:02.821Z,79
2023-01-13T02:33:02.845Z,79
2023-01-13T02:34:02.862Z,79
2023-01-13T02:35:02.883Z,79
2023-01-13T02:36:02.846Z,80
2023-01-13T02:37:02.841Z,80
2023-01-13T02:38:02.908Z,80
2023-01-13T02:39:02.853Z,80
2023-01-13T02:40:02.881Z,80
2023-01-13T02:41:02.835Z,80
2023-01-13T02:42:02.831Z,80
2023-01-13T02:43:02.931Z,81
2023-01-13T02:44:02.862Z,81
2023-01-13T02:45:02.828Z,81
2023-01-13T02:46:02.871Z,81
2023-01-13T02:47:02.830Z,81
2023-01-13T02:48:02.891Z,81
2023-01-13T02:49:02.827Z,81
2023-01-13T02:50:02.840Z,81
2023-01-13T02:51:02.878Z,81
2023-01-13T02:52:02.835Z,81
2023-01-13T02:53:02.883Z,81
2023-01-13T02:54:02.848Z,81
2023-01-13T02:55:02.859Z,81
2023-01-13T02:56:02.835Z,80
2023-01-13T02:57:02.850Z,80
2023-01-13T02:58:03.119Z,80
2023-01-13T02:59:02.842Z,80
2023-01-13T03:00:02.879Z,80
2023-01-13T03:01:02.948Z,80
2023-01-13T03:02:02.982Z,80
2023-01-13T03:03:02.901Z,80
2023-01-13T03:04:02.837Z,80
2023-01-13T03:05:02.871Z,80
2023-01-13T03:06:02.848Z,80
2023-01-13T03:07:02.843Z,80
2023-01-13T03:08:02.855Z,80
2023-01-13T03:09:02.838Z,80
2023-01-13T03:10:02.851Z,80
2023-01-13T03:11:02.840Z,80
2023-01-13T03:12:02.850Z,80
2023-01-13T03:13:02.868Z,79
2023-01-13T03:14:02.907Z,79
2023-01-13T03:15:02.848Z,79
2023-01-13T03:16:02.934Z,78
2023-01-13T03:17:02.850Z,78
2023-01-13T03:18:02.846Z,78
2023-01-13T03:19:02.846Z,78
2023-01-13T03:20:02.838Z,78
2023-01-13T03:21:02.892Z,78
2023-01-13T03:22:02.893Z,78
2023-01-13T03:23:02.861Z,78
2023-01-13T03:24:02.855Z,78
2023-01-13T03:25:02.857Z,78
2023-01-13T03:26:02.848Z,78
2023-01-13T03:27:02.920Z,78
2023-01-13T03:28:02.857Z,78
2023-01-13T03:29:02.858Z,78
2023-01-13T03:30:02.873Z,78
2023-01-13T03:31:02.884Z,78
2023-01-13T03:32:02.962Z,78
2023-01-13T03:33:03.088Z,79
2023-01-13T03:34:02.909Z,79
2023-01-13T03:35:02.853Z,79
2023-01-13T03:36:02.846Z,78
2023-01-13T03:37:02.904Z,78
2023-01-13T03:38:02.875Z,78
2023-01-13T03:39:02.854Z,78
2023-01-13T03:40:02.919Z,78
2023-01-13T03:41:02.882Z,78
2023-01-13T03:42:02.870Z,78
2023-01-13T03:43:02.931Z,78
2023-01-13T03:44:02.857Z,78
2023-01-13T03:45:02.858Z,78
2023-01-13T03:46:02.882Z,78
2023-01-13T03:47:02.858Z,78
2023-01-13T03:48:02.911Z,78
2023-01-13T03:49:02.856Z,78
2023-01-13T03:50:02.883Z,78
2023-01-13T03:51:02.866Z,78
2023-01-13T03:52:02.892Z,78
2023-01-13T03:53:02.879Z,78
2023-01-13T03:54:02.882Z,78
2023-01-13T03:55:02.856Z,78
2023-01-13T03:56:02.915Z,79
2023-01-13T03:57:02.874Z,79
2023-01-13T03:58:02.915Z,79
2023-01-13T03:59:02.880Z,79
2023-01-13T04:00:02.868Z,79
2023-01-13T04:01:02.969Z,79
2023-01-13T04:02:03.068Z,79
2023-01-13T04:03:02.887Z,78
2023-01-13T04:04:02.944Z,78
2023-01-13T04:05:02.868Z,78
2023-01-13T04:06:02.919Z,79
2023-01-13T04:07:02.880Z,79
2023-01-13T04:08:02.876Z,79
2023-01-13T04:09:02.892Z,79
2023-01-13T04:10:02.875Z,80
2023-01-13T04:11:02.879Z,80
2023-01-13T04:12:02.901Z,80
2023-01-13T04:13:03.115Z,82
2023-01-13T04:14:02.909Z,82
2023-01-13T04:15:02.888Z,82
2023-01-13T04:16:02.939Z,83
2023-01-13T04:17:02.921Z,83
2023-01-13T04:18:02.879Z,83
2023-01-13T04:19:02.875Z,83
2023-01-13T04:20:02.926Z,84
2023-01-13T04:21:02.904Z,84
2023-01-13T04:22:02.889Z,84
2023-01-13T04:23:02.968Z,84
2023-01-13T04:24:02.895Z,84
2023-01-13T04:25:02.875Z,84
2023-01-13T04:26:02.884Z,85
2023-01-13T04:27:02.879Z,85
2023-01-13T04:28:02.886Z,85
2023-01-13T04:29:02.880Z,85
2023-01-13T04:30:02.888Z,86
2023-01-13T04:31:02.956Z,86
2023-01-13T04:32:02.951Z,86
2023-01-13T04:33:02.860Z,87
2023-01-13T04:34:02.858Z,87
2023-01-13T04:35:02.868Z,87
2023-01-13T04:36:02.895Z,87
2023-01-13T04:37:02.859Z,87
2023-01-13T04:38:02.884Z,87
2023-01-13T04:39:02.939Z,87
2023-01-13T04:40:02.886Z,86
2023-01-13T04:41:02.851Z,86
2023-01-13T04:42:02.951Z,86
2023-01-13T04:43:02.919Z,86
2023-01-13T04:44:02.894Z,86
2023-01-13T04:45:02.866Z,86
2023-01-13T04:46:03.010Z,86
2023-01-13T04:47:02.864Z,86
2023-01-13T04:48:02.883Z,86
2023-01-13T04:49:02.916Z,86
2023-01-13T04:50:02.882Z,87
2023-01-13T04:51:02.868Z,87
2023-01-13T04:52:02.915Z,87
2023-01-13T04:53:02.931Z,87
2023-01-13T04:54:02.907Z,87
2023-01-13T04:55:02.915Z,87
2023-01-13T04:56:02.920Z,87
2023-01-13T04:57:02.965Z,87
2023-01-13T04:58:02.917Z,87
2023-01-13T04:59:02.919Z,87
2023-01-13T05:00:02.912Z,88
2023-01-13T05:01:02.959Z,88
2023-01-13T05:02:02.965Z,88
2023-01-13T05:03:02.910Z,88
2023-01-13T05:04:02.931Z,88
2023-01-13T05:05:02.942Z,88
2023-01-13T05:06:02.901Z,88
2023-01-13T05:07:02.907Z,89
2023-01-13T05:08:02.960Z,89
2023-01-13T05:09:02.911Z,89
2023-01-13T05:10:02.899Z,90
2023-01-13T05:11:02.903Z,90
2023-01-13T05:12:02.892Z,90
2023-01-13T05:13:02.910Z,90
2023-01-13T05:14:02.990Z,90
2023-01-13T05:15:02.916Z,90
2023-01-13T05:16:04.690Z,90
2023-01-13T05:17:02.902Z,91
2023-01-13T05:18:02.918Z,91
2023-01-13T05:19:02.915Z,91
2023-01-13T05:20:02.893Z,91
2023-01-13T05:21:02.972Z,91
2023-01-13T05:22:02.904Z,91
2023-01-13T05:23:02.909Z,91
2023-01-13T05:24:02.958Z,91
2023-01-13T05:25:02.907Z,91
2023-01-13T05:26:02.909Z,91
2023-01-13T05:27:02.899Z,92
2023-01-13T05:28:02.919Z,92
2023-01-13T05:29:02.906Z,92
2023-01-13T05:30:02.901Z,92
2023-01-13T05:31:02.939Z,92
2023-01-13T05:32:02.970Z,92
2023-01-13T05:33:02.906Z,92
2023-01-13T05:34:02.925Z,92
2023-01-13T05:35:02.918Z,92
2023-01-13T05:36:02.983Z,92
2023-01-13T05:37:02.968Z,92
2023-01-13T05:38:02.928Z,92
2023-01-13T05:39:02.908Z,92
2023-01-13T05:40:02.930Z,93
2023-01-13T05:41:02.907Z,93
2023-01-13T05:42:02.915Z,93
2023-01-13T05:43:02.925Z,93
2023-01-13T05:44:02.970Z,93
2023-01-13T05:45:02.920Z,93
2023-01-13T05:46:03.003Z,93
2023-01-13T05:47:02.929Z,93
2023-01-13T05:48:02.905Z,93
2023-01-13T05:49:02.921Z,93
2023-01-13T05:50:02.969Z,93
2023-01-13T05:51:02.916Z,93
2023-01-13T05:52:02.916Z,93
2023-01-13T05:53:02.925Z,93
2023-01-13T05:54:02.908Z,92
2023-01-13T05:55:02.915Z,92
2023-01-13T05:56:02.942Z,92
2023-01-13T05:57:02.921Z,92
2023-01-13T05:58:02.935Z,92
2023-01-13T05:59:02.912Z,92
2023-01-13T06:00:02.924Z,92
2023-01-13T06:01:03.002Z,92
2023-01-13T06:02:02.929Z,92
2023-01-13T06:03:02.973Z,92
2023-01-13T06:04:03.023Z,92
2023-01-13T06:05:02.920Z,92
2023-01-13T06:06:02.916Z,92
2023-01-13T06:07:02.983Z,92
2023-01-13T06:08:02.940Z,92
2023-01-13T06:09:02.937Z,92
2023-01-13T06:10:02.945Z,91
2023-01-13T06:11:02.915Z,91
2023-01-13T06:12:03.014Z,91
2023-01-13T06:13:02.927Z,91
2023-01-13T06:14:02.932Z,91
2023-01-13T06:15:02.972Z,91
2023-01-13T06:16:02.995Z,91
2023-01-13T06:17:02.936Z,90
2023-01-13T06:18:02.924Z,90
2023-01-13T06:19:03.003Z,90
2023-01-13T06:20:02.915Z,89
2023-01-13T06:21:02.915Z,89
2023-01-13T06:22:02.930Z,89
2023-01-13T06:23:02.933Z,89
2023-01-13T06:24:02.959Z,89
2023-01-13T06:25:02.954Z,89
2023-01-13T06:26:02.924Z,89
2023-01-13T06:27:02.917Z,89
2023-01-13T06:28:03.045Z,89
2023-01-13T06:29:02.928Z,89
2023-01-13T06:30:02.941Z,87
2023-01-13T06:31:03.024Z,87
2023-01-13T06:32:02.919Z,87
2023-01-13T06:33:02.918Z,87
2023-01-13T06:34:02.922Z,87
2023-01-13T06:35:05.358Z,87
2023-01-13T06:36:02.989Z,87
2023-01-13T06:37:02.945Z,86
2023-01-13T06:38:02.931Z,86
2023-01-13T06:39:02.973Z,86
2023-01-13T06:40:02.936Z,85
2023-01-13T06:41:02.923Z,85
2023-01-13T06:42:02.929Z,85
2023-01-13T06:43:02.970Z,85
2023-01-13T06:44:02.980Z,85
2023-01-13T06:45:02.934Z,85
2023-01-13T06:46:02.927Z,85
2023-01-13T06:47:03.004Z,85
2023-01-13T06:48:02.944Z,85
2023-01-13T06:49:02.939Z,85
2023-01-13T06:50:02.949Z,84
2023-01-13T06:51:02.944Z,84
2023-01-13T06:52:02.934Z,84
2023-01-13T06:53:02.969Z,84
2023-01-13T06:54:02.968Z,85
2023-01-13T06:55:02.954Z,85
2023-01-13T06:56:02.947Z,85
2023-01-13T06:57:02.946Z,84
2023-01-13T06:58:02.967Z,84
2023-01-13T06:59:02.965Z,84
2023-01-13T07:00:02.951Z,84
2023-01-13T07:01:03.081Z,84
2023-01-13T07:02:03.187Z,84
2023-01-13T07:03:03.760Z,84
2023-01-13T07:04:02.939Z,85
2023-01-13T07:05:02.939Z,85
2023-01-13T07:06:02.942Z,85
2023-01-13T07:07:03.011Z,84
2023-01-13T07:08:02.940Z,84
2023-01-13T07:09:03.072Z,84
2023-01-13T07:10:02.960Z,84
2023-01-13T07:11:02.966Z,84
2023-01-13T07:12:03.027Z,84
2023-01-13T07:13:02.952Z,84
2023-01-13T07:14:03.039Z,82
2023-01-13T07:15:03.022Z,82
2023-01-13T07:16:03.085Z,82
2023-01-13T07:17:02.974Z,83
2023-01-13T07:18:02.951Z,83
2023-01-13T07:19:02.962Z,83
2023-01-13T07:20:02.961Z,83
2023-01-13T07:21:02.952Z,83
2023-01-13T07:22:03.033Z,83
2023-01-13T07:23:02.959Z,83
2023-01-13T07:24:02.956Z,82
2023-01-13T07:25:02.947Z,82
2023-01-13T07:26:02.966Z,82
2023-01-13T07:27:02.968Z,82
2023-01-13T07:28:02.953Z,82
2023-01-13T07:29:02.990Z,82
2023-01-13T07:30:03.026Z,82
2023-01-13T07:31:02.950Z,82
2023-01-13T07:32:03.149Z,82
2023-01-13T07:33:02.964Z,82
2023-01-13T07:34:03.058Z,82
2023-01-13T07:35:02.961Z,83
2023-01-13T07:36:02.947Z,83
2023-01-13T07:37:02.976Z,83
2023-01-13T07:38:02.965Z,83
2023-01-13T07:39:02.970Z,83
2023-01-13T07:40:02.995Z,83
2023-01-13T07:41:02.963Z,84
2023-01-13T07:42:02.966Z,84
2023-01-13T07:43:02.956Z,84
2023-01-13T07:44:02.966Z,84
2023-01-13T07:45:02.983Z,86
2023-01-13T07:46:03.129Z,86
2023-01-13T07:47:02.956Z,86
2023-01-13T07:48:02.995Z,87
2023-01-13T07:49:02.955Z,87
2023-01-13T07:50:02.963Z,87
2023-01-13T07:51:02.967Z,88
2023-01-13T07:52:02.992Z,88
2023-01-13T07:53:02.962Z,88
2023-01-13T07:54:02.949Z,88
2023-01-13T07:55:02.950Z,88
2023-01-13T07:56:02.968Z,88
2023-01-13T07:57:02.952Z,88
2023-01-13T07:58:02.965Z,89
2023-01-13T07:59:02.957Z,89
2023-01-13T08:00:02.961Z,89
2023-01-13T08:01:03.096Z,90
2023-01-13T08:02:03.239Z,90
2023-01-13T08:03:02.993Z,90
2023-01-13T08:04:03.056Z,90
2023-01-13T08:05:02.986Z,91
2023-01-13T08:06:02.967Z,91
2023-01-13T08:07:02.990Z,91
2023-01-13T08:08:02.965Z,92
2023-01-13T08:09:02.969Z,92
2023-01-13T08:10:02.962Z,92
2023-01-13T08:11:02.959Z,92
2023-01-13T08:12:02.969Z,92
2023-01-13T08:13:02.962Z,92
2023-01-13T08:14:02.960Z,92
2023-01-13T08:15:02.984Z,93
2023-01-13T08:16:02.987Z,93
2023-01-13T08:17:03.023Z,93
2023-01-13T08:18:02.951Z,93
2023-01-13T08:19:03.014Z,93
2023-01-13T08:20:03.009Z,93
2023-01-13T08:21:02.956Z,93
2023-01-13T08:22:02.975Z,93
2023-01-13T08:23:03.330Z,93
2023-01-13T08:24:02.975Z,93
2023-01-13T08:25:02.958Z,93
2023-01-13T08:26:02.971Z,93
2023-01-13T08:27:02.969Z,93
2023-01-13T08:28:02.994Z,94
2023-01-13T08:29:02.996Z,94
2023-01-13T08:30:02.977Z,94
2023-01-13T08:31:03.059Z,94
2023-01-13T08:32:02.965Z,93
2023-01-13T08:33:02.968Z,93
2023-01-13T08:34:02.961Z,93
2023-01-13T08:35:02.965Z,94
2023-01-13T08:36:03.017Z,94
2023-01-13T08:37:02.977Z,94
2023-01-13T08:38:02.967Z,92
2023-01-13T08:39:02.961Z,92
2023-01-13T08:40:02.961Z,92
2023-01-13T08:41:03.160Z,92
2023-01-13T08:42:02.963Z,91
2023-01-13T08:43:02.984Z,91
2023-01-13T08:44:02.970Z,91
2023-01-13T08:45:02.971Z,88
2023-01-13T08:46:03.003Z,88
2023-01-13T08:47:02.981Z,88
2023-01-13T08:48:02.964Z,87
2023-01-13T08:49:03.049Z,87
2023-01-13T08:50:02.990Z,87
2023-01-13T08:51:02.970Z,87
2023-01-13T08:52:03.007Z,86
2023-01-13T08:53:02.961Z,86
2023-01-13T08:54:02.976Z,86
2023-01-13T08:55:02.966Z,85
2023-01-13T08:56:02.978Z,85
2023-01-13T08:57:03.052Z,85
2023-01-13T08:58:14.379Z,85
2023-01-13T08:59:02.970Z,85
2023-01-13T09:00:02.980Z,85
2023-01-13T09:01:03.054Z,85
2023-01-13T09:02:03.130Z,86
2023-01-13T09:03:02.986Z,86
2023-01-13T09:04:03.198Z,86
2023-01-13T09:05:02.968Z,87
2023-01-13T09:06:02.971Z,87
2023-01-13T09:07:02.969Z,87
2023-01-13T09:08:03.018Z,88
2023-01-13T09:09:03.034Z,88
2023-01-13T09:10:02.996Z,88
2023-01-13T09:11:02.994Z,88
2023-01-13T09:12:02.977Z,86
2023-01-13T09:13:02.976Z,86
2023-01-13T09:14:03.510Z,86
2023-01-13T09:15:02.971Z,87
2023-01-13T09:16:03.089Z,87
2023-01-13T09:17:02.974Z,87
2023-01-13T09:18:02.975Z,88
2023-01-13T09:19:02.976Z,88
2023-01-13T09:20:02.997Z,88
2023-01-13T09:21:03.033Z,88
2023-01-13T09:22:03.002Z,88
2023-01-13T09:23:03.000Z,88
2023-01-13T09:24:03.061Z,88
2023-01-13T09:25:02.979Z,87
2023-01-13T09:26:02.980Z,87
2023-01-13T09:27:02.970Z,87
2023-01-13T09:28:02.990Z,88
2023-01-13T09:29:02.971Z,88
2023-01-13T09:30:02.995Z,88
2023-01-13T09:31:03.016Z,88
2023-01-13T09:32:02.993Z,89
2023-01-13T09:33:02.970Z,89
2023-01-13T09:34:02.988Z,89
2023-01-13T09:35:03.007Z,89
2023-01-13T09:36:02.977Z,89
2023-01-13T09:37:03.036Z,89
2023-01-13T09:38:02.986Z,86
2023-01-13T09:39:02.999Z,86
2023-01-13T09:40:03.017Z,86
2023-01-13T09:41:02.983Z,86
2023-01-13T09:42:03.001Z,87
2023-01-13T09:43:02.991Z,87
2023-01-13T09:44:03.019Z,87
2023-01-13T09:45:02.979Z,85
2023-01-13T09:46:03.032Z,85
2023-01-13T09:47:02.993Z,85
2023-01-13T09:48:02.984Z,85
2023-01-13T09:49:02.979Z,85
2023-01-13T09:50:02.983Z,85
2023-01-13T09:51:03.044Z,85
2023-01-13T09:52:02.998Z,86
2023-01-13T09:53:03.047Z,86
2023-01-13T09:54:02.990Z,86
2023-01-13T09:55:02.988Z,86
2023-01-13T09:56:03.073Z,86
2023-01-13T09:57:03.024Z,86
2023-01-13T09:58:03.000Z,86
2023-01-13T09:59:03.004Z,87
2023-01-13T10:00:02.994Z,87
2023-01-13T10:01:03.037Z,87
2023-01-13T10:02:03.002Z,87
2023-01-13T10:03:03.038Z,87
2023-01-13T10:04:03.062Z,87
2023-01-13T10:05:03.030Z,87
2023-01-13T10:06:02.986Z,87
2023-01-13T10:07:03.023Z,87
2023-01-13T10:08:03.011Z,87
2023-01-13T10:09:02.999Z,87
2023-01-13T10:10:02.958Z,87
2023-01-13T10:11:02.987Z,87
2023-01-13T10:12:03.028Z,86
2023-01-13T10:13:02.984Z,86
2023-01-13T10:14:03.020Z,86
2023-01-13T10:15:02.995Z,87
2023-01-13T10:16:03.316Z,87
2023-01-13T10:17:03.007Z,87
2023-01-13T10:18:03.017Z,87
2023-01-13T10:19:03.009Z,87
2023-01-13T10:20:03.008Z,87
2023-01-13T10:21:03.002Z,87
2023-01-13T10:22:03.000Z,87
2023-01-13T10:23:02.993Z,87
2023-01-13T10:24:03.008Z,87
2023-01-13T10:25:03.003Z,86
2023-01-13T10:26:03.065Z,86
2023-01-13T10:27:03.011Z,86
2023-01-13T10:28:03.026Z,86
2023-01-13T10:29:02.999Z,87
2023-01-13T10:30:03.008Z,87
2023-01-13T10:31:03.002Z,87
2023-01-13T10:32:02.999Z,85
2023-01-13T10:33:02.983Z,85
2023-01-13T10:34:02.989Z,85
2023-01-13T10:35:03.028Z,84
2023-01-13T10:36:02.993Z,84
2023-01-13T10:37:03.065Z,84
2023-01-13T10:38:02.981Z,84
2023-01-13T10:39:03.006Z,84
2023-01-13T10:40:02.996Z,84
2023-01-13T10:41:03.021Z,84
2023-01-13T10:42:02.999Z,85
2023-01-13T10:43:03.005Z,85
2023-01-13T10:44:03.009Z,85
2023-01-13T10:45:02.997Z,85
2023-01-13T10:46:02.994Z,85
2023-01-13T10:47:03.000Z,85
2023-01-13T10:48:03.011Z,85
2023-01-13T10:49:03.035Z,86
2023-01-13T10:50:02.998Z,86
2023-01-13T10:51:02.994Z,86
2023-01-13T10:52:03.066Z,86
2023-01-13T10:53:03.075Z,86
2023-01-13T10:54:03.063Z,86
2023-01-13T10:55:02.990Z,86
2023-01-13T10:56:02.991Z,86
2023-01-13T10:57:03.049Z,86
2023-01-13T10:58:03.045Z,86
2023-01-13T10:59:03.016Z,85
2023-01-13T11:00:03.027Z,85
2023-01-13T11:01:03.057Z,85
2023-01-13T11:02:10.242Z,85
2023-01-13T11:03:03.026Z,85
2023-01-13T11:04:03.025Z,85
2023-01-13T11:05:03.103Z,86
2023-01-13T11:06:03.023Z,86
2023-01-13T11:07:03.013Z,86
2023-01-13T11:08:03.031Z,86
2023-01-13T11:09:03.007Z,85
2023-01-13T11:10:03.036Z,85
2023-01-13T11:11:03.026Z,85
2023-01-13T11:12:03.060Z,85
2023-01-13T11:13:03.025Z,85
2023-01-13T11:14:03.045Z,85
2023-01-13T11:15:03.021Z,84
2023-01-13T11:16:03.051Z,84
2023-01-13T11:17:03.018Z,84
2023-01-13T11:18:03.004Z,84
2023-01-13T11:19:03.023Z,85
2023-01-13T11:20:03.017Z,85
2023-01-13T11:21:03.014Z,85
2023-01-13T11:22:03.004Z,84
2023-01-13T11:23:03.027Z,84
2023-01-13T11:24:03.045Z,84
2023-01-13T11:25:03.043Z,84
2023-01-13T11:26:03.020Z,84
2023-01-13T11:27:03.050Z,84
2023-01-13T11:28:02.998Z,84
2023-01-13T11:29:03.041Z,84
2023-01-13T11:30:03.021Z,84
2023-01-13T11:31:03.055Z,84
2023-01-13T11:32:03.045Z,83
2023-01-13T11:33:03.006Z,83
2023-01-13T11:34:03.007Z,83
2023-01-13T11:35:03.010Z,83
2023-01-13T11:36:03.006Z,83
2023-01-13T11:37:03.008Z,83
2023-01-13T11:38:03.008Z,83
2023-01-13T11:39:03.013Z,82
2023-01-13T11:40:03.005Z,82
2023-01-13T11:41:03.011Z,82
2023-01-13T11:42:03.019Z,82
2023-01-13T11:43:03.025Z,82
2023-01-13T11:44:03.017Z,82
2023-01-13T11:45:03.096Z,82
2023-01-13T11:46:03.016Z,83
2023-01-13T11:47:03.043Z,83
2023-01-13T11:48:03.109Z,83
2023-01-13T11:49:03.084Z,82
2023-01-13T11:50:03.027Z,82
2023-01-13T11:51:03.039Z,82
2023-01-13T11:52:03.023Z,83
2023-01-13T11:53:03.019Z,83
2023-01-13T11:54:03.021Z,83
2023-01-13T11:55:03.012Z,83
2023-01-13T11:56:03.024Z,82
2023-01-13T11:57:03.022Z,82
2023-01-13T11:58:03.087Z,82
2023-01-13T11:59:03.027Z,81
2023-01-13T12:00:03.017Z,81
2023-01-13T12:01:03.056Z,81
2023-01-13T12:02:03.043Z,81
2023-01-13T12:03:03.053Z,81
2023-01-13T12:04:03.067Z,81
2023-01-13T12:05:03.017Z,81
2023-01-13T12:06:03.053Z,80
2023-01-13T12:07:03.035Z,80
2023-01-13T12:08:03.029Z,80
2023-01-13T12:09:03.126Z,78
2023-01-13T12:10:03.702Z,78
2023-01-13T12:11:03.037Z,78
2023-01-13T12:12:03.118Z,80
2023-01-13T12:13:03.072Z,80
2023-01-13T12:14:03.073Z,80
2023-01-13T12:15:03.041Z,80
2023-01-13T12:16:03.030Z,79
2023-01-13T12:17:03.052Z,79
2023-01-13T12:18:03.114Z,79
2023-01-13T12:19:03.021Z,80
2023-01-13T12:20:03.122Z,80
2023-01-13T12:21:03.082Z,80
2023-01-13T12:22:03.104Z,80
2023-01-13T12:23:03.069Z,81
2023-01-13T12:24:03.113Z,81
2023-01-13T12:25:03.037Z,81
2023-01-13T12:26:03.047Z,79
2023-01-13T12:27:03.090Z,79
2023-01-13T12:28:03.103Z,79
2023-01-13T12:29:03.145Z,79
2023-01-13T12:30:03.046Z,79
2023-01-13T12:31:03.055Z,79
2023-01-13T12:32:03.128Z,79
2023-01-13T12:33:03.058Z,79
2023-01-13T12:34:03.040Z,79
2023-01-13T12:35:03.049Z,79
2023-01-13T12:36:03.068Z,79
2023-01-13T12:37:03.050Z,79
2023-01-13T12:38:03.081Z,79
2023-01-13T12:39:03.073Z,79
2023-01-13T12:40:03.059Z,79
2023-01-13T12:41:03.043Z,79
2023-01-13T12:42:03.052Z,79
2023-01-13T12:43:03.044Z,80
2023-01-13T12:44:03.107Z,80
2023-01-13T12:45:03.051Z,80
2023-01-13T12:46:03.127Z,79
2023-01-13T12:47:03.050Z,79
2023-01-13T12:48:03.042Z,79
2023-01-13T12:49:03.047Z,79
2023-01-13T12:50:03.050Z,79
2023-01-13T12:51:03.051Z,79
2023-01-13T12:52:03.075Z,79
2023-01-13T12:53:03.043Z,78
2023-01-13T12:54:03.106Z,78
2023-01-13T12:55:03.055Z,78
2023-01-13T12:56:03.119Z,78
2023-01-13T12:57:03.058Z,78
2023-01-13T12:58:03.057Z,78
2023-01-13T12:59:03.121Z,76
2023-01-13T13:00:03.083Z,76
2023-01-13T13:01:03.110Z,76
2023-01-13T13:02:03.256Z,76
2023-01-13T13:03:03.124Z,76
2023-01-13T13:04:03.120Z,76
2023-01-13T13:05:03.078Z,76
2023-01-13T13:06:03.059Z,76
2023-01-13T13:07:03.048Z,76
2023-01-13T13:08:03.144Z,76
2023-01-13T13:09:03.981Z,75
2023-01-13T13:10:03.079Z,75
2023-01-13T13:11:03.049Z,75
2023-01-13T13:12:03.044Z,75
2023-01-13T13:13:03.053Z,75
2023-01-13T13:14:03.049Z,75
2023-01-13T13:15:03.654Z,75
2023-01-13T13:16:03.061Z,75
2023-01-13T13:17:03.047Z,75
2023-01-13T13:18:03.121Z,75
2023-01-13T13:19:03.116Z,73
2023-01-13T13:20:03.059Z,73
2023-01-13T13:21:04.614Z,73
2023-01-13T13:22:03.042Z,73
2023-01-13T13:23:03.064Z,73
2023-01-13T13:24:03.124Z,73
2023-01-13T13:25:03.071Z,73
2023-01-13T13:26:03.040Z,73
2023-01-13T13:27:03.715Z,73
2023-01-13T13:28:03.098Z,73
2023-01-13T13:29:03.073Z,73
2023-01-13T13:30:03.043Z,73
2023-01-13T13:31:03.153Z,73
2023-01-13T13:32:03.066Z,73
2023-01-13T13:33:03.037Z,74
2023-01-13T13:34:03.066Z,74
2023-01-13T13:35:03.050Z,74
2023-01-13T13:36:03.065Z,75
2023-01-13T13:37:03.035Z,75
2023-01-13T13:38:03.086Z,75
2023-01-13T13:39:03.075Z,74
2023-01-13T13:40:03.088Z,74
2023-01-13T13:41:03.203Z,74
2023-01-13T13:42:03.094Z,74
2023-01-13T13:43:03.058Z,75
2023-01-13T13:44:03.318Z,75
2023-01-13T13:45:03.075Z,75
2023-01-13T13:46:03.115Z,76
2023-01-13T13:47:03.046Z,76
2023-01-13T13:48:03.048Z,76
2023-01-13T13:49:03.074Z,80
2023-01-13T13:50:03.080Z,80
2023-01-13T13:51:03.077Z,80
2023-01-13T13:52:03.165Z,80
2023-01-13T13:53:03.035Z,79
2023-01-13T13:54:03.088Z,79
2023-01-13T13:55:03.070Z,79
2023-01-13T13:56:03.102Z,78
2023-01-13T13:57:03.086Z,78
2023-01-13T13:58:03.055Z,78
2023-01-13T13:59:03.054Z,78
2023-01-13T14:00:03.074Z,78
2023-01-13T14:01:03.112Z,78
2023-01-13T14:02:03.141Z,78
2023-01-13T14:03:03.030Z,79
2023-01-13T14:04:03.171Z,79
2023-01-13T14:05:03.097Z,79
2023-01-13T14:06:03.078Z,79
2023-01-13T14:07:03.035Z,79
2023-01-13T14:08:02.993Z,79
2023-01-13T14:09:03.005Z,80
2023-01-13T14:10:02.994Z,80
2023-01-13T14:11:02.989Z,80
2023-01-13T14:12:03.043Z,80
2023-01-13T14:13:03.000Z,80
2023-01-13T14:14:03.047Z,80
2023-01-13T14:15:03.006Z,80